createdAt,value
2017-05-11T00:00:23.278Z,998.07
2017-05-11T00:01:24.543Z,998.07
2017-05-11T00:02:25.844Z,998.05
2017-05-11T00:03:27.141Z,998.04
2017-05-11T00:04:28.372Z,998
2017-05-11T00:05:29.645Z,998
2017-05-11T00:06:30.925Z,998
2017-05-11T00:07:32.219Z,998.01
2017-05-11T00:08:33.488Z,997.98
2017-05-11T00:09:34.722Z,997.94
2017-05-11T00:10:36.032Z,997.96
2017-05-11T00:11:37.315Z,997.94
2017-05-11T00:12:38.529Z,997.93
2017-05-11T00:13:39.797Z,997.91
2017-05-11T00:14:41.014Z,997.9
2017-05-11T00:15:42.243Z,997.91
2017-05-11T00:16:43.516Z,997.92
2017-05-11T00:17:44.782Z,997.89
2017-05-11T00:18:46.023Z,997.94
2017-05-11T00:19:47.297Z,997.88
2017-05-11T00:20:48.552Z,997.87
2017-05-11T00:21:49.875Z,997.86
2017-05-11T00:22:51.159Z,997.83
2017-05-11T00:23:52.388Z,997.84
2017-05-11T00:24:53.613Z,997.84
2017-05-11T00:25:54.989Z,997.85
2017-05-11T00:26:56.237Z,997.84
2017-05-11T00:27:57.506Z,997.81
2017-05-11T00:28:58.753Z,997.8
2017-05-11T00:30:00.135Z,997.77
2017-05-11T00:31:01.387Z,997.72
2017-05-11T00:32:02.650Z,997.76
2017-05-11T00:33:04.018Z,997.74
2017-05-11T00:34:05.354Z,997.68
2017-05-11T00:35:06.667Z,997.69
2017-05-11T00:36:07.884Z,997.66
2017-05-11T00:37:09.165Z,997.67
2017-05-11T00:38:10.404Z,997.69
2017-05-11T00:39:11.679Z,997.65
2017-05-11T00:40:13.014Z,997.64
2017-05-11T00:41:14.256Z,997.64
2017-05-11T00:42:15.492Z,997.62
2017-05-11T00:43:16.779Z,997.6
2017-05-11T00:44:17.984Z,997.62
2017-05-11T00:45:19.249Z,997.56
2017-05-11T00:46:20.501Z,997.55
2017-05-11T00:47:21.767Z,997.56
2017-05-11T00:48:23.014Z,997.54
2017-05-11T00:49:24.254Z,997.53
2017-05-11T00:50:25.510Z,997.52
2017-05-11T00:51:26.733Z,997.49
2017-05-11T00:52:28.010Z,997.47
2017-05-11T00:53:29.245Z,997.49
2017-05-11T00:54:30.584Z,997.45
2017-05-11T00:55:31.725Z,997.46
2017-05-11T00:56:33.185Z,997.44
2017-05-11T00:57:34.376Z,997.43
2017-05-11T00:58:35.667Z,997.41
2017-05-11T00:59:36.906Z,997.41
2017-05-11T01:00:38.171Z,997.36
2017-05-11T01:01:39.402Z,997.36
2017-05-11T01:02:40.646Z,997.32
2017-05-11T01:03:41.917Z,997.38
2017-05-11T01:04:43.189Z,997.35
2017-05-11T01:05:44.456Z,997.33
2017-05-11T01:06:45.791Z,997.31
2017-05-11T01:07:47.118Z,997.25
2017-05-11T01:08:48.371Z,997.24
2017-05-11T01:09:49.636Z,997.23
2017-05-11T01:10:50.875Z,997.23
2017-05-11T01:11:52.168Z,997.19
2017-05-11T01:12:53.494Z,997.22
2017-05-11T01:13:54.735Z,997.18
2017-05-11T01:14:56.000Z,997.18
2017-05-11T01:15:57.272Z,997.14
2017-05-11T01:16:58.509Z,997.13
2017-05-11T01:17:59.752Z,997.11
2017-05-11T01:19:01.121Z,997.1
2017-05-11T01:20:02.354Z,997.07
2017-05-11T01:21:03.613Z,997.06
2017-05-11T01:22:04.862Z,997.04
2017-05-11T01:23:06.109Z,997.03
2017-05-11T01:24:07.484Z,997
2017-05-11T01:25:08.711Z,997.03
2017-05-11T01:26:10.001Z,997.03
2017-05-11T01:27:11.255Z,996.99
2017-05-11T01:28:12.533Z,996.98
2017-05-11T01:29:13.786Z,996.98
2017-05-11T01:30:15.059Z,997.01
2017-05-11T01:31:16.376Z,996.98
2017-05-11T01:32:17.607Z,996.95
2017-05-11T01:33:18.872Z,996.95
2017-05-11T01:34:20.159Z,996.91
2017-05-11T01:35:21.489Z,996.93
2017-05-11T01:36:22.811Z,996.94
2017-05-11T01:37:24.085Z,996.91
2017-05-11T01:38:25.346Z,996.89
2017-05-11T01:39:26.638Z,996.88
2017-05-11T01:40:27.852Z,996.87
2017-05-11T01:41:29.138Z,996.86
2017-05-11T01:42:30.388Z,996.85
2017-05-11T01:43:31.712Z,996.78
2017-05-11T01:44:32.944Z,996.8
2017-05-11T01:45:34.180Z,996.8
2017-05-11T01:46:35.443Z,996.78
2017-05-11T01:47:36.700Z,996.73
2017-05-11T01:48:37.950Z,996.73
2017-05-11T01:49:39.337Z,996.68
2017-05-11T01:50:40.589Z,996.62
2017-05-11T01:51:41.882Z,996.64
2017-05-11T01:52:43.168Z,996.59
2017-05-11T01:53:44.472Z,996.57
2017-05-11T01:54:45.925Z,996.55
2017-05-11T01:55:47.209Z,996.55
2017-05-11T01:56:48.455Z,996.53
2017-05-11T01:57:49.700Z,996.56
2017-05-11T01:58:50.968Z,996.51
2017-05-11T01:59:52.258Z,996.54
2017-05-11T02:00:53.635Z,996.57
2017-05-11T02:01:54.895Z,996.53
2017-05-11T02:02:56.138Z,996.49
2017-05-11T02:03:57.420Z,996.49
2017-05-11T02:04:58.685Z,996.48
2017-05-11T02:05:59.931Z,996.48
2017-05-11T02:07:01.226Z,996.45
2017-05-11T02:08:02.483Z,996.45
2017-05-11T02:09:03.719Z,996.41
2017-05-11T02:10:04.977Z,996.41
2017-05-11T02:11:06.239Z,996.38
2017-05-11T02:12:07.996Z,996.36
2017-05-11T02:13:09.276Z,996.38
2017-05-11T02:14:10.533Z,996.37
2017-05-11T02:15:11.860Z,996.34
2017-05-11T02:16:13.106Z,996.33
2017-05-11T02:17:14.349Z,996.32
2017-05-11T02:18:15.604Z,996.31
2017-05-11T02:19:16.947Z,996.29
2017-05-11T02:20:18.158Z,996.26
2017-05-11T02:21:19.426Z,996.27
2017-05-11T02:22:20.704Z,996.25
2017-05-11T02:23:21.988Z,996.26
2017-05-11T02:24:23.302Z,996.27
2017-05-11T02:25:24.560Z,996.24
2017-05-11T02:26:25.841Z,996.22
2017-05-11T02:27:27.096Z,996.21
2017-05-11T02:28:28.309Z,996.25
2017-05-11T02:29:29.592Z,996.2
2017-05-11T02:30:30.863Z,996.16
2017-05-11T02:31:32.096Z,996.13
2017-05-11T02:32:33.349Z,996.15
2017-05-11T02:33:34.598Z,996.13
2017-05-11T02:34:35.919Z,996.12
2017-05-11T02:35:37.210Z,996.09
2017-05-11T02:36:38.475Z,996.1
2017-05-11T02:37:39.826Z,996.06
2017-05-11T02:38:41.057Z,996.08
2017-05-11T02:39:42.357Z,996.06
2017-05-11T02:40:43.693Z,996.06
2017-05-11T02:41:44.964Z,996.03
2017-05-11T02:42:46.247Z,996
2017-05-11T02:43:47.480Z,996
2017-05-11T02:44:48.725Z,995.98
2017-05-11T02:45:50.149Z,995.96
2017-05-11T02:46:51.481Z,995.92
2017-05-11T02:47:52.746Z,995.94
2017-05-11T02:48:54.009Z,995.9
2017-05-11T02:49:55.240Z,995.93
2017-05-11T02:50:56.465Z,995.9
2017-05-11T02:51:57.741Z,995.9
2017-05-11T02:52:59.078Z,995.88
2017-05-11T02:54:00.263Z,995.88
2017-05-11T02:55:01.622Z,995.85
2017-05-11T02:56:02.867Z,995.86
2017-05-11T02:57:04.134Z,995.86
2017-05-11T02:58:05.406Z,995.81
2017-05-11T02:59:06.715Z,995.83
2017-05-11T03:00:08.053Z,995.83
2017-05-11T03:01:09.288Z,995.8
2017-05-11T03:02:10.554Z,995.82
2017-05-11T03:03:11.890Z,995.84
2017-05-11T03:04:13.186Z,995.81
2017-05-11T03:05:14.428Z,995.8
2017-05-11T03:06:15.783Z,995.8
2017-05-11T03:07:17.080Z,995.77
2017-05-11T03:08:18.351Z,995.76
2017-05-11T03:09:19.582Z,995.76
2017-05-11T03:10:20.819Z,995.7
2017-05-11T03:11:22.126Z,995.72
2017-05-11T03:12:23.529Z,995.73
2017-05-11T03:13:24.803Z,995.7
2017-05-11T03:14:26.110Z,995.68
2017-05-11T03:15:27.456Z,995.64
2017-05-11T03:16:28.705Z,995.61
2017-05-11T03:17:29.944Z,995.57
2017-05-11T03:18:31.365Z,995.58
2017-05-11T03:19:32.585Z,995.54
2017-05-11T03:20:33.866Z,995.54
2017-05-11T03:21:35.230Z,995.49
2017-05-11T03:22:36.457Z,995.49
2017-05-11T03:23:37.724Z,995.5
2017-05-11T03:24:38.977Z,995.5
2017-05-11T03:25:40.228Z,995.49
2017-05-11T03:26:41.493Z,995.48
2017-05-11T03:27:42.712Z,995.49
2017-05-11T03:28:43.977Z,995.44
2017-05-11T03:29:45.232Z,995.44
2017-05-11T03:30:46.467Z,995.42
2017-05-11T03:31:47.718Z,995.39
2017-05-11T03:32:48.992Z,995.44
2017-05-11T03:33:50.259Z,995.41
2017-05-11T03:34:51.538Z,995.42
2017-05-11T03:35:52.812Z,995.42
2017-05-11T03:36:54.055Z,995.46
2017-05-11T03:37:55.325Z,995.4
2017-05-11T03:38:56.624Z,995.43
2017-05-11T03:39:57.928Z,995.41
2017-05-11T03:40:59.310Z,995.41
2017-05-11T03:42:00.567Z,995.4
2017-05-11T03:43:01.828Z,995.4
2017-05-11T03:44:03.138Z,995.42
2017-05-11T03:45:04.370Z,995.39
2017-05-11T03:46:05.645Z,995.38
2017-05-11T03:47:06.988Z,995.34
2017-05-11T03:48:08.228Z,995.31
2017-05-11T03:49:09.462Z,995.31
2017-05-11T03:50:10.701Z,995.3
2017-05-11T03:51:12.194Z,995.28
2017-05-11T03:52:13.643Z,995.27
2017-05-11T03:53:14.870Z,995.29
2017-05-11T03:54:16.150Z,995.33
2017-05-11T03:55:17.429Z,995.28
2017-05-11T03:56:18.703Z,995.27
2017-05-11T03:57:19.936Z,995.27
2017-05-11T03:58:21.172Z,995.29
2017-05-11T03:59:22.522Z,995.24
2017-05-11T04:00:23.755Z,995.24
2017-05-11T04:01:25.078Z,995.23
2017-05-11T04:02:26.321Z,995.2
2017-05-11T04:03:27.577Z,995.21
2017-05-11T04:04:28.891Z,995.19
2017-05-11T04:05:30.156Z,995.17
2017-05-11T04:06:31.481Z,995.19
2017-05-11T04:07:32.740Z,995.25
2017-05-11T04:08:34.009Z,995.17
2017-05-11T04:09:35.373Z,995.17
2017-05-11T04:10:36.601Z,995.16
2017-05-11T04:11:37.870Z,995.18
2017-05-11T04:12:39.158Z,995.19
2017-05-11T04:13:40.452Z,995.12
2017-05-11T04:14:41.710Z,995.17
2017-05-11T04:15:42.963Z,995.12
2017-05-11T04:16:44.227Z,995.15
2017-05-11T04:17:45.589Z,995.15
2017-05-11T04:18:46.841Z,995.11
2017-05-11T04:19:48.082Z,995.11
2017-05-11T04:20:49.490Z,995.09
2017-05-11T04:21:50.713Z,995.11
2017-05-11T04:22:51.978Z,995.1
2017-05-11T04:23:53.263Z,995.04
2017-05-11T04:24:54.517Z,995.03
2017-05-11T04:25:55.774Z,994.99
2017-05-11T04:26:57.030Z,995.03
2017-05-11T04:27:58.273Z,995.02
2017-05-11T04:28:59.596Z,995
2017-05-11T04:30:00.887Z,995.03
2017-05-11T04:31:02.189Z,995
2017-05-11T04:32:03.478Z,994.99
2017-05-11T04:33:04.717Z,995
2017-05-11T04:34:05.989Z,994.96
2017-05-11T04:35:07.232Z,994.87
2017-05-11T04:36:08.523Z,994.91
2017-05-11T04:37:09.776Z,994.91
2017-05-11T04:38:11.007Z,994.88
2017-05-11T04:39:12.272Z,994.86
2017-05-11T04:40:13.639Z,994.96
2017-05-11T04:41:14.893Z,994.91
2017-05-11T04:42:16.172Z,994.91
2017-05-11T04:43:17.436Z,994.91
2017-05-11T04:44:18.704Z,994.89
2017-05-11T04:45:19.998Z,994.85
2017-05-11T04:46:21.320Z,994.85
2017-05-11T04:47:22.701Z,994.88
2017-05-11T04:48:23.939Z,994.9
2017-05-11T04:49:25.222Z,994.83
2017-05-11T04:50:26.481Z,994.8
2017-05-11T04:51:27.786Z,994.8
2017-05-11T04:52:29.099Z,994.8
2017-05-11T04:53:30.361Z,994.83
2017-05-11T04:54:31.596Z,994.85
2017-05-11T04:55:32.848Z,994.84
2017-05-11T04:56:34.139Z,994.85
2017-05-11T04:57:35.393Z,994.81
2017-05-11T04:58:36.646Z,994.84
2017-05-11T04:59:37.900Z,994.85
2017-05-11T05:00:39.191Z,994.83
2017-05-11T05:01:40.444Z,994.86
2017-05-11T05:02:41.716Z,994.82
2017-05-11T05:03:42.962Z,994.81
2017-05-11T05:04:44.235Z,994.78
2017-05-11T05:05:45.529Z,994.78
2017-05-11T05:06:46.902Z,994.79
2017-05-11T05:07:48.189Z,994.86
2017-05-11T05:08:49.431Z,994.86
2017-05-11T05:09:50.698Z,994.76
2017-05-11T05:10:52.040Z,994.79
2017-05-11T05:11:53.301Z,994.79
2017-05-11T05:12:54.541Z,994.74
2017-05-11T05:13:55.834Z,994.78
2017-05-11T05:14:57.073Z,994.75
2017-05-11T05:15:58.490Z,994.72
2017-05-11T05:16:59.812Z,994.72
2017-05-11T05:18:01.091Z,994.72
2017-05-11T05:19:02.373Z,994.71
2017-05-11T05:20:03.623Z,994.68
2017-05-11T05:21:04.913Z,994.68
2017-05-11T05:22:06.154Z,994.7
2017-05-11T05:23:07.552Z,994.7
2017-05-11T05:24:08.797Z,994.72
2017-05-11T05:25:10.066Z,994.71
2017-05-11T05:26:11.323Z,994.74
2017-05-11T05:27:12.592Z,994.73
2017-05-11T05:28:13.895Z,994.74
2017-05-11T05:29:15.179Z,994.73
2017-05-11T05:30:16.449Z,994.74
2017-05-11T05:31:17.712Z,994.7
2017-05-11T05:32:18.982Z,994.7
2017-05-11T05:33:20.274Z,994.73
2017-05-11T05:34:21.598Z,994.64
2017-05-11T05:35:22.840Z,994.62
2017-05-11T05:36:24.115Z,994.6
2017-05-11T05:37:25.358Z,994.63
2017-05-11T05:38:26.619Z,994.64
2017-05-11T05:39:27.855Z,994.63
2017-05-11T05:40:29.146Z,994.69
2017-05-11T05:41:30.623Z,994.73
2017-05-11T05:42:31.792Z,994.75
2017-05-11T05:43:33.082Z,994.77
2017-05-11T05:44:34.352Z,994.74
2017-05-11T05:45:35.725Z,994.74
2017-05-11T05:46:36.998Z,994.69
2017-05-11T05:47:38.261Z,994.77
2017-05-11T05:48:39.496Z,994.75
2017-05-11T05:49:40.777Z,994.72
2017-05-11T05:50:42.082Z,994.75
2017-05-11T05:51:43.311Z,994.75
2017-05-11T05:52:44.558Z,994.76
2017-05-11T05:53:45.835Z,994.72
2017-05-11T05:54:47.164Z,994.76
2017-05-11T05:55:48.431Z,994.81
2017-05-11T05:56:49.792Z,994.85
2017-05-11T05:57:51.089Z,994.86
2017-05-11T05:58:52.366Z,994.73
2017-05-11T05:59:53.615Z,994.65
2017-05-11T06:00:54.856Z,994.72
2017-05-11T06:01:56.147Z,994.82
2017-05-11T06:02:57.500Z,994.83
2017-05-11T06:03:58.791Z,994.81
2017-05-11T06:05:00.046Z,994.81
2017-05-11T06:06:01.316Z,994.8
2017-05-11T06:07:02.565Z,994.8
2017-05-11T06:08:03.865Z,994.76
2017-05-11T06:09:05.347Z,994.77
2017-05-11T06:10:06.485Z,994.77
2017-05-11T06:11:07.769Z,994.75
2017-05-11T06:12:09.043Z,994.74
2017-05-11T06:13:10.317Z,994.75
2017-05-11T06:14:11.567Z,994.7
2017-05-11T06:15:12.877Z,994.75
2017-05-11T06:16:14.181Z,994.79
2017-05-11T06:17:15.439Z,994.82
2017-05-11T06:18:16.714Z,994.82
2017-05-11T06:19:17.988Z,994.82
2017-05-11T06:20:19.280Z,994.89
2017-05-11T06:21:20.568Z,994.95
2017-05-11T06:22:21.967Z,994.87
2017-05-11T06:23:23.261Z,994.76
2017-05-11T06:24:24.520Z,994.97
2017-05-11T06:25:25.769Z,994.97
2017-05-11T06:26:27.033Z,994.92
2017-05-11T06:27:28.363Z,994.96
2017-05-11T06:28:29.646Z,995.03
2017-05-11T06:29:30.897Z,995
2017-05-11T06:30:32.167Z,995.09
2017-05-11T06:31:33.447Z,995.07
2017-05-11T06:32:34.752Z,995.15
2017-05-11T06:33:35.981Z,995.14
2017-05-11T06:34:37.256Z,995.05
2017-05-11T06:35:38.497Z,995.1
2017-05-11T06:36:39.789Z,995.07
2017-05-11T06:37:41.015Z,994.99
2017-05-11T06:38:42.317Z,995.11
2017-05-11T06:39:43.587Z,995.15
2017-05-11T06:40:44.832Z,995.14
2017-05-11T06:41:46.107Z,995.16
2017-05-11T06:42:47.398Z,995.16
2017-05-11T06:43:48.675Z,995.07
2017-05-11T06:44:50.038Z,995.15
2017-05-11T06:45:51.309Z,995.09
2017-05-11T06:46:52.598Z,995.16
2017-05-11T06:47:53.864Z,995.24
2017-05-11T06:48:55.202Z,995.27
2017-05-11T06:49:56.534Z,995.27
2017-05-11T06:50:57.869Z,995.22
2017-05-11T06:51:59.279Z,995.24
2017-05-11T06:53:00.539Z,995.2
2017-05-11T06:54:01.825Z,995.24
2017-05-11T06:55:03.071Z,995.26
2017-05-11T06:56:04.359Z,995.23
2017-05-11T06:57:05.614Z,995.2
2017-05-11T06:58:06.896Z,995.23
2017-05-11T06:59:08.156Z,995.22
2017-05-11T07:00:09.400Z,995.22
2017-05-11T07:01:10.669Z,995.22
2017-05-11T07:02:11.948Z,995.22
2017-05-11T07:03:13.249Z,996.14
2017-05-11T07:04:14.507Z,996.19
2017-05-11T07:05:15.798Z,996.16
2017-05-11T07:06:17.070Z,996.1
2017-05-11T07:07:18.419Z,996.1
2017-05-11T07:08:19.743Z,996.06
2017-05-11T07:09:21.082Z,995.92
2017-05-11T07:10:22.383Z,995.91
2017-05-11T07:11:23.696Z,995.97
2017-05-11T07:12:24.929Z,995.85
2017-05-11T07:13:26.222Z,995.9
2017-05-11T07:14:27.571Z,995.88
2017-05-11T07:15:28.833Z,995.89
2017-05-11T07:16:30.120Z,995.6
2017-05-11T07:17:31.437Z,995.56
2017-05-11T07:18:32.713Z,995.65
2017-05-11T07:19:33.999Z,995.62
2017-05-11T07:20:35.274Z,995.64
2017-05-11T07:21:36.558Z,995.74
2017-05-11T07:22:37.883Z,995.64
2017-05-11T07:23:39.179Z,995.72
2017-05-11T07:24:40.510Z,995.75
2017-05-11T07:25:41.814Z,995.66
2017-05-11T07:26:43.161Z,995.63
2017-05-11T07:27:44.443Z,995.61
2017-05-11T07:28:45.706Z,995.53
2017-05-11T07:29:47.006Z,995.46
2017-05-11T07:30:48.370Z,995.39
2017-05-11T07:31:49.623Z,995.3
2017-05-11T07:32:50.921Z,995.31
2017-05-11T07:33:52.190Z,995.29
2017-05-11T07:34:53.492Z,995.29
2017-05-11T07:35:54.737Z,995.34
2017-05-11T07:36:56.129Z,995.22
2017-05-11T07:37:57.397Z,995.21
2017-05-11T07:38:58.666Z,994.96
2017-05-11T07:39:59.943Z,994.89
2017-05-11T07:41:01.199Z,994.94
2017-05-11T07:42:02.533Z,994.66
2017-05-11T07:43:03.804Z,994.61
2017-05-11T07:44:05.159Z,994.66
2017-05-11T07:45:06.428Z,994.59
2017-05-11T07:46:07.706Z,994.49
2017-05-11T07:47:08.967Z,994.4
2017-05-11T07:48:10.293Z,994.45
2017-05-11T07:49:11.653Z,994.45
2017-05-11T07:50:12.927Z,994.51
2017-05-11T07:51:14.170Z,994.48
2017-05-11T07:52:15.443Z,994.5
2017-05-11T07:53:16.713Z,994.5
2017-05-11T07:54:18.180Z,994.72
2017-05-11T07:55:19.418Z,994.51
2017-05-11T07:56:20.709Z,994.54
2017-05-11T07:57:21.993Z,994.56
2017-05-11T07:58:23.249Z,994.66
2017-05-11T07:59:24.569Z,994.65
2017-05-11T08:00:25.887Z,994.66
2017-05-11T08:01:27.180Z,994.69
2017-05-11T08:02:28.435Z,994.67
2017-05-11T08:03:29.705Z,994.65
2017-05-11T08:04:30.966Z,994.62
2017-05-11T08:05:32.336Z,994.55
2017-05-11T08:06:33.618Z,994.56
2017-05-11T08:07:34.920Z,994.48
2017-05-11T08:08:36.228Z,994.47
2017-05-11T08:09:37.480Z,994.55
2017-05-11T08:10:38.771Z,994.45
2017-05-11T08:11:40.085Z,994.5
2017-05-11T08:12:41.445Z,994.45
2017-05-11T08:13:42.720Z,994.49
2017-05-11T08:14:44.039Z,994.5
2017-05-11T08:15:45.284Z,994.62
2017-05-11T08:16:46.543Z,994.64
2017-05-11T08:17:47.876Z,994.73
2017-05-11T08:18:49.171Z,994.74
2017-05-11T08:19:50.471Z,994.86
2017-05-11T08:20:51.711Z,994.91
2017-05-11T08:21:52.989Z,994.98
2017-05-11T08:22:54.234Z,995.1
2017-05-11T08:23:55.554Z,995.11
2017-05-11T08:24:56.806Z,995.1
2017-05-11T08:25:58.079Z,995.14
2017-05-11T08:26:59.372Z,995.24
2017-05-11T08:28:00.662Z,995.3
2017-05-11T08:29:02.050Z,995.34
2017-05-11T08:30:03.314Z,995.55
2017-05-11T08:31:04.578Z,995.64
2017-05-11T08:32:05.863Z,995.62
2017-05-11T08:33:07.117Z,995.8
2017-05-11T08:34:08.389Z,995.69
2017-05-11T08:35:09.666Z,995.74
2017-05-11T08:36:11.019Z,995.92
2017-05-11T08:37:12.279Z,996.18
2017-05-11T08:38:13.546Z,996.33
2017-05-11T08:39:14.818Z,996.55
2017-05-11T08:40:16.209Z,996.63
2017-05-11T08:41:17.482Z,996.57
2017-05-11T08:42:18.735Z,996.7
2017-05-11T08:43:19.988Z,996.58
2017-05-11T08:44:21.303Z,996.64
2017-05-11T08:45:22.582Z,996.66
2017-05-11T08:46:23.909Z,996.8
2017-05-11T08:47:25.250Z,996.92
2017-05-11T08:48:26.505Z,996.96
2017-05-11T08:49:27.810Z,996.91
2017-05-11T08:50:29.075Z,997.03
2017-05-11T08:51:30.385Z,997.13
2017-05-11T08:52:31.668Z,997.3
2017-05-11T08:53:32.914Z,997.5
2017-05-11T08:54:34.192Z,997.4
2017-05-11T08:55:35.479Z,997.37
2017-05-11T08:56:36.765Z,997.46
2017-05-11T08:57:38.051Z,997.52
2017-05-11T08:58:39.498Z,997.61
2017-05-11T08:59:40.757Z,997.56
2017-05-11T09:00:42.040Z,997.58
2017-05-11T09:01:43.317Z,997.49
2017-05-11T09:02:44.599Z,997.42
2017-05-11T09:03:45.983Z,997.34
2017-05-11T09:04:47.321Z,997.07
2017-05-11T09:05:48.564Z,997.21
2017-05-11T09:06:49.829Z,997.26
2017-05-11T09:07:51.097Z,997.08
2017-05-11T09:08:52.386Z,997.14
2017-05-11T09:09:53.655Z,996.96
2017-05-11T09:10:54.901Z,996.87
2017-05-11T09:11:56.167Z,996.8
2017-05-11T09:12:57.480Z,997
2017-05-11T09:13:58.774Z,997.01
2017-05-11T09:15:00.046Z,997.11
2017-05-11T09:16:01.291Z,997.16
2017-05-11T09:17:02.552Z,997.14
2017-05-11T09:18:03.796Z,996.81
2017-05-11T09:19:05.103Z,996.84
2017-05-11T09:20:06.378Z,996.77
2017-05-11T09:21:07.710Z,996.68
2017-05-11T09:22:08.938Z,996.42
2017-05-11T09:23:10.220Z,996.12
2017-05-11T09:24:11.473Z,996.03
2017-05-11T09:25:12.746Z,995.93
2017-05-11T09:26:14.153Z,995.75
2017-05-11T09:27:15.540Z,995.6
2017-05-11T09:28:16.802Z,995.43
2017-05-11T09:29:18.094Z,995.34
2017-05-11T09:30:19.358Z,995.25
2017-05-11T09:31:20.700Z,995.17
2017-05-11T09:32:21.990Z,995.09
2017-05-11T09:33:23.360Z,994.97
2017-05-11T09:34:24.664Z,994.89
2017-05-11T09:35:25.975Z,994.78
2017-05-11T09:36:27.316Z,994.71
2017-05-11T09:37:28.555Z,994.58
2017-05-11T09:38:29.818Z,994.45
2017-05-11T09:39:31.105Z,994.39
2017-05-11T09:40:32.380Z,994.29
2017-05-11T09:41:33.663Z,994.22
2017-05-11T09:42:34.938Z,994.16
2017-05-11T09:43:36.245Z,994.1
2017-05-11T09:44:37.536Z,993.98
2017-05-11T09:45:38.811Z,993.92
2017-05-11T09:46:40.092Z,993.88
2017-05-11T09:47:41.375Z,993.83
2017-05-11T09:48:42.701Z,993.79
2017-05-11T09:49:44.111Z,993.79
2017-05-11T09:50:45.417Z,993.75
2017-05-11T09:51:46.686Z,993.76
2017-05-11T09:52:47.948Z,993.76
2017-05-11T09:53:49.260Z,993.67
2017-05-11T09:54:50.552Z,993.64
2017-05-11T09:55:51.842Z,993.58
2017-05-11T09:56:53.126Z,993.65
2017-05-11T09:57:54.396Z,993.59
2017-05-11T09:58:55.666Z,993.58
2017-05-11T09:59:56.969Z,993.56
2017-05-11T10:00:58.361Z,993.6
2017-05-11T10:01:59.623Z,993.6
2017-05-11T10:03:00.891Z,993.59
2017-05-11T10:04:02.161Z,993.57
2017-05-11T10:05:03.559Z,993.55
2017-05-11T10:06:04.710Z,993.52
2017-05-11T10:07:06.052Z,993.52
2017-05-11T10:08:07.376Z,993.42
2017-05-11T10:09:08.669Z,993.37
2017-05-11T10:10:09.948Z,993.3
2017-05-11T10:11:11.216Z,993.29
2017-05-11T10:12:12.502Z,993.32
2017-05-11T10:13:13.783Z,993.24
2017-05-11T10:14:15.062Z,993.52
2017-05-11T10:15:16.337Z,993.27
2017-05-11T10:16:17.622Z,993.19
2017-05-11T10:17:18.901Z,993.2
2017-05-11T10:18:20.187Z,993.18
2017-05-11T10:19:21.457Z,993.23
2017-05-11T10:20:22.726Z,993.18
2017-05-11T10:21:23.981Z,993.12
2017-05-11T10:22:25.266Z,993.08
2017-05-11T10:23:26.597Z,993.12
2017-05-11T10:24:28.008Z,993.07
2017-05-11T10:25:29.304Z,993.07
2017-05-11T10:26:30.541Z,993.1
2017-05-11T10:27:31.871Z,993
2017-05-11T10:28:33.141Z,993.01
2017-05-11T10:29:34.484Z,992.9
2017-05-11T10:30:35.725Z,992.88
2017-05-11T10:31:37.010Z,992.78
2017-05-11T10:32:38.278Z,992.74
2017-05-11T10:33:39.569Z,992.77
2017-05-11T10:34:40.841Z,992.72
2017-05-11T10:35:42.175Z,992.74
2017-05-11T10:36:43.453Z,992.67
2017-05-11T10:37:44.711Z,992.58
2017-05-11T10:38:45.991Z,992.62
2017-05-11T10:39:47.270Z,992.61
2017-05-11T10:40:48.544Z,992.59
2017-05-11T10:41:49.822Z,992.63
2017-05-11T10:42:51.089Z,992.55
2017-05-11T10:43:52.383Z,992.57
2017-05-11T10:44:53.666Z,992.64
2017-05-11T10:45:54.936Z,992.59
2017-05-11T10:46:56.211Z,992.57
2017-05-11T10:47:57.514Z,992.52
2017-05-11T10:48:58.774Z,992.56
2017-05-11T10:50:00.048Z,992.53
2017-05-11T10:51:01.301Z,992.48
2017-05-11T10:52:02.580Z,992.53
2017-05-11T10:53:03.957Z,992.5
2017-05-11T10:54:05.318Z,992.42
2017-05-11T10:55:06.573Z,992.44
2017-05-11T10:56:07.840Z,992.36
2017-05-11T10:57:09.103Z,992.38
2017-05-11T10:58:10.402Z,992.34
2017-05-11T10:59:11.685Z,992.32
2017-05-11T11:00:12.942Z,992.28
2017-05-11T11:01:14.212Z,992.32
2017-05-11T11:02:15.516Z,992.32
2017-05-11T11:03:16.766Z,992.25
2017-05-11T11:04:18.088Z,992.26
2017-05-11T11:05:19.382Z,992.26
2017-05-11T11:06:20.704Z,992.24
2017-05-11T11:07:22.024Z,992.26
2017-05-11T11:08:23.364Z,992.28
2017-05-11T11:09:24.586Z,992.23
2017-05-11T11:10:25.824Z,992.18
2017-05-11T11:11:27.172Z,992.17
2017-05-11T11:12:28.451Z,992.16
2017-05-11T11:13:29.691Z,992.08
2017-05-11T11:14:30.970Z,992.06
2017-05-11T11:15:32.231Z,992.05
2017-05-11T11:16:33.555Z,992.06
2017-05-11T11:17:34.815Z,992.03
2017-05-11T11:18:36.065Z,992
2017-05-11T11:19:37.375Z,992.01
2017-05-11T11:20:38.633Z,992.04
2017-05-11T11:21:40.051Z,992.06
2017-05-11T11:22:41.310Z,991.98
2017-05-11T11:23:42.558Z,991.98
2017-05-11T11:24:43.833Z,992.01
2017-05-11T11:25:45.098Z,992.06
2017-05-11T11:26:46.407Z,991.99
2017-05-11T11:27:47.640Z,992.06
2017-05-11T11:28:48.916Z,991.97
2017-05-11T11:29:50.161Z,992.07
2017-05-11T11:30:51.434Z,991.9
2017-05-11T11:31:52.694Z,991.97
2017-05-11T11:32:53.953Z,992.02
2017-05-11T11:33:55.215Z,991.96
2017-05-11T11:34:56.451Z,991.91
2017-05-11T11:35:57.839Z,991.84
2017-05-11T11:36:59.091Z,991.84
2017-05-11T11:38:00.398Z,991.9
2017-05-11T11:39:01.633Z,991.78
2017-05-11T11:40:02.905Z,991.84
2017-05-11T11:41:04.171Z,991.82
2017-05-11T11:42:05.510Z,991.84
2017-05-11T11:43:06.776Z,991.78
2017-05-11T11:44:08.028Z,991.76
2017-05-11T11:45:09.307Z,991.77
2017-05-11T11:46:10.616Z,991.82
2017-05-11T11:47:12.002Z,991.79
2017-05-11T11:48:13.276Z,991.7
2017-05-11T11:49:14.523Z,991.69
2017-05-11T11:50:15.842Z,991.78
2017-05-11T11:51:17.141Z,991.7
2017-05-11T11:52:18.384Z,991.71
2017-05-11T11:53:19.663Z,991.71
2017-05-11T11:54:20.944Z,991.67
2017-05-11T11:55:22.337Z,991.72
2017-05-11T11:56:23.609Z,991.66
2017-05-11T11:57:24.888Z,991.66
2017-05-11T11:58:26.136Z,991.77
2017-05-11T11:59:27.595Z,991.59
2017-05-11T12:00:28.869Z,991.6
2017-05-11T12:01:30.208Z,991.53
2017-05-11T12:02:31.469Z,991.54
2017-05-11T12:03:32.725Z,991.47
2017-05-11T12:04:34.026Z,991.46
2017-05-11T12:05:35.325Z,991.46
2017-05-11T12:06:36.600Z,991.48
2017-05-11T12:07:37.903Z,991.42
2017-05-11T12:08:39.293Z,991.47
2017-05-11T12:09:40.438Z,991.43
2017-05-11T12:10:41.702Z,991.46
2017-05-11T12:11:42.972Z,991.37
2017-05-11T12:12:44.207Z,991.47
2017-05-11T12:13:45.525Z,991.49
2017-05-11T12:14:46.725Z,991.38
2017-05-11T12:15:48.088Z,991.38
2017-05-11T12:16:49.475Z,991.41
2017-05-11T12:17:50.748Z,991.34
2017-05-11T12:18:52.104Z,991.44
2017-05-11T12:19:53.360Z,991.35
2017-05-11T12:20:54.603Z,991.37
2017-05-11T12:21:55.910Z,991.36
2017-05-11T12:22:57.147Z,991.39
2017-05-11T12:23:58.456Z,991.38
2017-05-11T12:24:59.784Z,991.39
2017-05-11T12:26:01.041Z,991.47
2017-05-11T12:27:02.291Z,991.31
2017-05-11T12:28:03.604Z,991.42
2017-05-11T12:29:04.930Z,991.35
2017-05-11T12:30:06.174Z,991.37
2017-05-11T12:31:07.424Z,991.26
2017-05-11T12:32:08.706Z,991.22
2017-05-11T12:33:10.048Z,991.26
2017-05-11T12:34:11.305Z,991.26
2017-05-11T12:35:12.579Z,991.23
2017-05-11T12:36:13.854Z,991.23
2017-05-11T12:37:15.107Z,991.24
2017-05-11T12:38:16.391Z,991.17
2017-05-11T12:39:17.658Z,991.19
2017-05-11T12:40:18.929Z,991.12
2017-05-11T12:41:20.210Z,991.13
2017-05-11T12:42:21.491Z,991.07
2017-05-11T12:43:22.756Z,991.03
2017-05-11T12:44:24.067Z,991.03
2017-05-11T12:45:25.321Z,991.03
2017-05-11T12:46:26.583Z,991.07
2017-05-11T12:47:27.868Z,991.11
2017-05-11T12:48:29.135Z,991.01